createdAt,value
2023-05-14T00:00:03.622Z,98587.48
2023-05-14T00:02:53.801Z,98587.92
2023-05-14T00:05:20.635Z,98587.49
2023-05-14T00:07:47.240Z,98591.45
2023-05-14T00:10:14.234Z,98595.59
2023-05-14T00:12:40.810Z,98595.50
2023-05-14T00:15:08.013Z,98598.78
2023-05-14T00:17:34.589Z,98595.05
2023-05-14T00:20:01.268Z,98595.77
2023-05-14T00:22:27.785Z,98593.36
2023-05-14T00:24:54.862Z,98596.36
2023-05-14T00:27:21.510Z,98597.29
2023-05-14T00:29:48.130Z,98602.45
2023-05-14T00:32:14.853Z,98598.55
2023-05-14T00:34:41.487Z,98587.11
2023-05-14T00:37:08.111Z,98582.10
2023-05-14T00:39:35.009Z,98575.69
2023-05-14T00:42:01.649Z,98573.68
2023-05-14T00:44:28.607Z,98571.55
2023-05-14T00:46:55.253Z,98567.85
2023-05-14T00:49:22.659Z,98574.23
2023-05-14T00:51:49.522Z,98573.95
2023-05-14T00:54:16.578Z,98569.88
2023-05-14T00:56:46.500Z,98572.36
2023-05-14T00:59:13.370Z,98571.54
2023-05-14T01:01:40.068Z,98575.38
2023-05-14T01:04:07.187Z,98574.80
2023-05-14T01:06:44.374Z,98570.73
2023-05-14T01:09:50.480Z,98570.69
2023-05-14T01:12:34.171Z,98563.19
2023-05-14T01:15:05.966Z,98556.09
2023-05-14T01:17:33.358Z,98554.14
2023-05-14T01:20:00.311Z,98553.77
2023-05-14T01:22:27.340Z,98558.04
2023-05-14T01:24:53.876Z,98555.06
2023-05-14T01:27:43.214Z,98552.27
2023-05-14T01:30:27.160Z,98549.52
2023-05-14T01:32:55.326Z,98553.65
2023-05-14T01:35:27.208Z,98552.37
2023-05-14T01:37:58.016Z,98549.90
2023-05-14T01:40:25.336Z,98546.11
2023-05-14T01:42:52.486Z,98540.62
2023-05-14T01:45:22.711Z,98539.52
2023-05-14T01:47:50.673Z,98537.15
2023-05-14T01:50:17.614Z,98535.91
2023-05-14T01:52:44.261Z,98535.98
2023-05-14T01:55:11.009Z,98540.19
2023-05-14T01:57:37.701Z,98536.02
2023-05-14T02:00:05.346Z,98530.27
2023-05-14T02:02:40.443Z,98529.05
2023-05-14T02:05:08.085Z,98529.61
2023-05-14T02:07:34.670Z,98534.28
2023-05-14T02:10:01.879Z,98534.48
2023-05-14T02:12:28.544Z,98533.58
2023-05-14T02:14:55.313Z,98536.10
2023-05-14T02:17:23.654Z,98539.10
2023-05-14T02:19:50.679Z,98544.92
2023-05-14T02:22:17.404Z,98539.57
2023-05-14T02:24:44.228Z,98541.81
2023-05-14T02:27:12.528Z,98544.48
2023-05-14T02:29:39.370Z,98545.98
2023-05-14T02:32:06.322Z,98551.55
2023-05-14T02:34:33.837Z,98545.16
2023-05-14T02:37:00.601Z,98545.04
2023-05-14T02:39:27.410Z,98541.34
2023-05-14T02:41:54.356Z,98539.94
2023-05-14T02:44:20.901Z,98537.73
2023-05-14T02:46:47.661Z,98539.13
2023-05-14T02:49:14.370Z,98543.27
2023-05-14T02:51:40.911Z,98543.30
2023-05-14T02:54:07.648Z,98539.13
2023-05-14T02:56:34.341Z,98541.35
2023-05-14T02:59:01.047Z,98543.20
2023-05-14T03:01:28.514Z,98543.73
2023-05-14T03:03:55.728Z,98546.61
2023-05-14T03:06:22.416Z,98545.25
2023-05-14T03:08:49.257Z,98548.63
2023-05-14T03:11:15.995Z,98551.95
2023-05-14T03:13:42.619Z,98552.52
2023-05-14T03:16:09.271Z,98555.00
2023-05-14T03:18:36.369Z,98558.30
2023-05-14T03:21:03.431Z,98562.67
2023-05-14T03:23:31.553Z,98563.92
2023-05-14T03:25:58.238Z,98564.48
2023-05-14T03:28:25.416Z,98562.54
2023-05-14T03:30:52.305Z,98556.72
2023-05-14T03:33:19.143Z,98558.63
2023-05-14T03:35:45.740Z,98559.00
2023-05-14T03:38:12.525Z,98563.39
2023-05-14T03:40:39.036Z,98568.30
2023-05-14T03:43:05.646Z,98569.01
2023-05-14T03:45:32.729Z,98570.77
2023-05-14T03:47:59.335Z,98573.73
2023-05-14T03:50:26.558Z,98578.54
2023-05-14T03:52:54.373Z,98582.13
2023-05-14T03:55:21.133Z,98584.25
2023-05-14T03:57:48.053Z,98587.78
2023-05-14T04:00:15.047Z,98586.00
2023-05-14T04:02:44.600Z,98583.58
2023-05-14T04:05:11.375Z,98582.36
2023-05-14T04:07:38.065Z,98581.91
2023-05-14T04:10:05.698Z,98582.40
2023-05-14T04:12:34.726Z,98579.45
2023-05-14T04:15:01.571Z,98584.38
2023-05-14T04:17:28.624Z,98586.37
2023-05-14T04:19:56.776Z,98587.02
2023-05-14T04:22:24.176Z,98592.92
2023-05-14T04:24:51.155Z,98589.63
2023-05-14T04:27:20.990Z,98593.45
2023-05-14T04:29:48.323Z,98595.11
2023-05-14T04:32:15.090Z,98590.50
2023-05-14T04:34:41.905Z,98590.92
2023-05-14T04:37:08.657Z,98590.66
2023-05-14T04:39:35.295Z,98586.94
2023-05-14T04:42:01.909Z,98584.91
2023-05-14T04:44:28.446Z,98587.23
2023-05-14T04:46:55.301Z,98591.55
2023-05-14T04:49:21.816Z,98595.06
2023-05-14T04:51:48.873Z,98592.98
2023-05-14T04:54:15.423Z,98593.34
2023-05-14T04:56:42.050Z,98592.33
2023-05-14T04:59:08.720Z,98596.02
2023-05-14T05:01:35.635Z,98598.75
2023-05-14T05:04:02.406Z,98599.89
2023-05-14T05:06:29.375Z,98592.65
2023-05-14T05:08:56.039Z,98588.74
2023-05-14T05:11:22.578Z,98590.58
2023-05-14T05:13:49.766Z,98591.55
2023-05-14T05:16:16.428Z,98587.69
2023-05-14T05:18:44.023Z,98589.59
2023-05-14T05:21:10.727Z,98586.15
2023-05-14T05:23:37.329Z,98583.90
2023-05-14T05:26:04.359Z,98584.62
2023-05-14T05:28:31.018Z,98584.45
2023-05-14T05:30:57.993Z,98583.04
2023-05-14T05:33:25.041Z,98577.63
2023-05-14T05:35:51.809Z,98578.47
2023-05-14T05:38:18.358Z,98578.27
2023-05-14T05:40:44.956Z,98578.58
2023-05-14T05:43:13.286Z,98580.89
2023-05-14T05:45:40.938Z,98578.47
2023-05-14T05:48:07.830Z,98573.96
2023-05-14T05:50:34.427Z,98574.77
2023-05-14T05:53:01.328Z,98578.23
2023-05-14T05:55:28.448Z,98578.98
2023-05-14T05:57:55.247Z,98582.19
2023-05-14T06:00:22.595Z,98588.27
2023-05-14T06:02:49.438Z,98594.22
2023-05-14T06:05:16.133Z,98597.86
2023-05-14T06:07:42.854Z,98601.16
2023-05-14T06:10:09.662Z,98604.96
2023-05-14T06:12:36.402Z,98603.73
2023-05-14T06:15:03.272Z,98605.49
2023-05-14T06:17:30.090Z,98608.67
2023-05-14T06:19:56.741Z,98605.63
2023-05-14T06:22:23.580Z,98609.16
2023-05-14T06:24:50.186Z,98618.84
2023-05-14T06:27:16.704Z,98626.52
2023-05-14T06:29:43.223Z,98627.87
2023-05-14T06:32:09.960Z,98630.50
2023-05-14T06:34:36.756Z,98622.59
2023-05-14T06:37:03.508Z,98628.77
2023-05-14T06:39:30.270Z,98627.83
2023-05-14T06:41:57.182Z,98629.02
2023-05-14T06:44:23.799Z,98632.25
2023-05-14T06:46:50.445Z,98632.05
2023-05-14T06:49:17.613Z,98636.64
2023-05-14T06:51:44.388Z,98641.06
2023-05-14T06:54:11.275Z,98638.63
2023-05-14T06:56:37.919Z,98640.69
2023-05-14T06:59:04.587Z,98641.64
2023-05-14T07:01:31.211Z,98640.77
2023-05-14T07:03:57.900Z,98641.79
2023-05-14T07:06:24.434Z,98642.82
2023-05-14T07:08:51.140Z,98641.36
2023-05-14T07:11:17.999Z,98632.77
2023-05-14T07:13:44.749Z,98631.57
2023-05-14T07:16:11.577Z,98634.77
2023-05-14T07:18:38.246Z,98636.74
2023-05-14T07:21:06.019Z,98639.77
2023-05-14T07:23:35.423Z,98637.63
2023-05-14T07:26:02.377Z,98636.27
2023-05-14T07:28:28.888Z,98639.77
2023-05-14T07:30:55.545Z,98634.86
2023-05-14T07:33:22.417Z,98635.59
2023-05-14T07:35:48.946Z,98631.52
2023-05-14T07:38:15.918Z,98629.57
2023-05-14T07:40:42.924Z,98628.27
2023-05-14T07:43:09.747Z,98626.91
2023-05-14T07:45:37.523Z,98626.11
2023-05-14T07:48:04.706Z,98624.03
2023-05-14T07:50:31.461Z,98624.66
2023-05-14T07:52:58.214Z,98623.08
2023-05-14T07:55:25.378Z,98620.55
2023-05-14T07:57:52.025Z,98625.13
2023-05-14T08:00:19.079Z,98625.88
2023-05-14T08:02:45.826Z,98628.52
2023-05-14T08:05:13.181Z,98622.93
2023-05-14T08:07:39.880Z,98619.98
2023-05-14T08:10:07.480Z,98620.63
2023-05-14T08:12:34.312Z,98620.73
2023-05-14T08:15:01.413Z,98617.02
2023-05-14T08:17:28.067Z,98614.61
2023-05-14T08:19:54.714Z,98611.30
2023-05-14T08:22:21.815Z,98610.88
2023-05-14T08:24:48.699Z,98606.09
2023-05-14T08:27:16.146Z,98603.21
2023-05-14T08:29:42.807Z,98605.81
2023-05-14T08:32:19.773Z,98607.34
2023-05-14T08:34:49.074Z,98610.04
2023-05-14T08:37:15.665Z,98606.58
2023-05-14T08:39:43.206Z,98604.52
2023-05-14T08:42:11.365Z,98601.95
2023-05-14T08:44:49.340Z,98604.98
2023-05-14T08:47:17.529Z,98608.15
2023-05-14T08:49:46.183Z,98608.64
2023-05-14T08:52:12.982Z,98609.05
2023-05-14T08:54:39.903Z,98610.70
2023-05-14T08:57:08.850Z,98611.84
2023-05-14T08:59:35.573Z,98609.05
2023-05-14T09:02:02.644Z,98610.03
2023-05-14T09:04:29.856Z,98600.10
2023-05-14T09:06:56.532Z,98596.02
2023-05-14T09:09:23.080Z,98593.50
2023-05-14T09:11:53.713Z,98593.60
2023-05-14T09:14:21.242Z,98590.75
2023-05-14T09:16:49.094Z,98593.96
2023-05-14T09:19:18.399Z,98595.03
2023-05-14T09:21:45.409Z,98589.26
2023-05-14T09:24:22.707Z,98583.36
2023-05-14T09:26:53.524Z,98580.11
2023-05-14T09:29:20.258Z,98574.45
2023-05-14T09:31:47.491Z,98575.44
2023-05-14T09:34:26.190Z,98572.20
2023-05-14T09:37:00.854Z,98571.05
2023-05-14T09:39:27.598Z,98569.30
2023-05-14T09:41:55.210Z,98573.05
2023-05-14T09:44:22.022Z,98572.17
2023-05-14T09:46:48.802Z,98570.19
2023-05-14T09:49:15.529Z,98571.20
2023-05-14T09:51:42.140Z,98568.89
2023-05-14T09:54:09.155Z,98570.77
2023-05-14T09:56:36.261Z,98565.58
2023-05-14T09:59:03.368Z,98566.63
2023-05-14T10:01:30.229Z,98565.13
2023-05-14T10:03:57.173Z,98563.21
2023-05-14T10:06:35.882Z,98562.32
2023-05-14T10:09:05.296Z,98556.05
2023-05-14T10:11:33.245Z,98556.99
2023-05-14T10:14:04.036Z,98560.66
2023-05-14T10:16:33.486Z,98556.55
2023-05-14T10:19:05.771Z,98562.46
2023-05-14T10:21:33.949Z,98561.12
2023-05-14T10:24:00.629Z,98558.73
2023-05-14T10:26:27.566Z,98559.86
2023-05-14T10:28:55.331Z,98554.99
2023-05-14T10:31:53.770Z,98555.56
2023-05-14T10:34:37.742Z,98556.07
2023-05-14T10:37:05.913Z,98550.92
2023-05-14T10:39:51.206Z,98549.59
2023-05-14T10:42:18.648Z,98550.39
2023-05-14T10:44:56.536Z,98551.55
2023-05-14T10:47:23.489Z,98552.65
2023-05-14T10:49:52.702Z,98548.20
2023-05-14T10:52:19.706Z,98535.37
2023-05-14T10:54:53.911Z,98531.96
2023-05-14T10:57:21.543Z,98520.96
2023-05-14T10:59:55.390Z,98517.29
2023-05-14T11:02:29.135Z,98513.92
2023-05-14T11:04:57.346Z,98505.14
2023-05-14T11:07:35.091Z,98501.82
2023-05-14T11:10:15.308Z,98498.87
2023-05-14T11:12:43.721Z,98492.11
2023-05-14T11:15:11.613Z,98481.67
2023-05-14T11:17:40.359Z,98477.27
2023-05-14T11:20:07.663Z,98475.04
2023-05-14T11:22:34.999Z,98474.90
2023-05-14T11:25:01.661Z,98474.03
2023-05-14T11:27:28.920Z,98478.08
2023-05-14T11:29:56.097Z,98470.75
2023-05-14T11:32:22.941Z,98459.51
2023-05-14T11:34:50.712Z,98457.66
2023-05-14T11:37:17.690Z,98458.77
2023-05-14T11:39:51.897Z,98456.52
2023-05-14T11:42:18.860Z,98454.64
2023-05-14T11:44:49.883Z,98453.06
2023-05-14T11:47:17.721Z,98453.52
2023-05-14T11:49:44.938Z,98445.73
2023-05-14T11:52:15.476Z,98437.11
2023-05-14T11:54:42.755Z,98436.75
2023-05-14T11:57:11.377Z,98440.05
2023-05-14T11:59:38.122Z,98435.44
2023-05-14T12:02:09.653Z,98428.24
2023-05-14T12:04:36.371Z,98425.73
2023-05-14T12:07:08.434Z,98418.42
2023-05-14T12:09:50.838Z,98407.08
2023-05-14T12:12:21.131Z,98395.33
2023-05-14T12:14:48.168Z,98399.00
2023-05-14T12:17:18.811Z,98405.19
2023-05-14T12:19:47.553Z,98398.08
2023-05-14T12:22:16.568Z,98391.59
2023-05-14T12:24:43.755Z,98381.89
2023-05-14T12:27:11.171Z,98370.38
2023-05-14T12:29:40.584Z,98369.55
2023-05-14T12:32:08.680Z,98380.52
2023-05-14T12:34:37.354Z,98374.80
2023-05-14T12:37:05.679Z,98374.95
2023-05-14T12:39:32.997Z,98369.98
2023-05-14T12:41:59.846Z,98366.77
2023-05-14T12:44:26.595Z,98363.19
2023-05-14T12:46:53.389Z,98362.70
2023-05-14T12:49:20.039Z,98365.58
2023-05-14T12:51:46.529Z,98365.18
2023-05-14T12:54:15.126Z,98372.94
2023-05-14T12:56:42.042Z,98375.59
2023-05-14T12:59:08.990Z,98372.41
2023-05-14T13:01:37.591Z,98371.84
2023-05-14T13:04:04.984Z,98364.92
2023-05-14T13:06:32.182Z,98357.75
2023-05-14T13:09:01.977Z,98352.54
2023-05-14T13:11:31.051Z,98346.83
2023-05-14T13:14:00.850Z,98339.95
2023-05-14T13:16:27.790Z,98337.91
2023-05-14T13:18:54.790Z,98338.22
2023-05-14T13:21:21.563Z,98336.32
2023-05-14T13:23:48.377Z,98329.98
2023-05-14T13:26:15.370Z,98336.27
2023-05-14T13:28:42.608Z,98346.45
2023-05-14T13:31:10.732Z,98350.52
2023-05-14T13:33:40.297Z,98348.17
2023-05-14T13:36:07.660Z,98344.43
2023-05-14T13:38:34.374Z,98338.45
2023-05-14T13:41:04.038Z,98323.34
2023-05-14T13:43:31.294Z,98302.60
2023-05-14T13:45:58.532Z,98292.94
2023-05-14T13:48:25.427Z,98277.29
2023-05-14T13:50:52.242Z,98265.70
2023-05-14T13:53:22.776Z,98267.41
2023-05-14T13:55:49.774Z,98269.19
2023-05-14T13:58:16.434Z,98273.17
2023-05-14T14:00:43.101Z,98280.20
2023-05-14T14:03:09.790Z,98277.09
2023-05-14T14:05:36.572Z,98280.83
2023-05-14T14:08:17.882Z,98289.98
2023-05-14T14:10:50.011Z,98296.07
2023-05-14T14:13:16.887Z,98302.61
2023-05-14T14:15:43.834Z,98296.43
2023-05-14T14:18:11.125Z,98287.13
2023-05-14T14:20:37.735Z,98286.23
2023-05-14T14:23:04.700Z,98283.55
2023-05-14T14:25:31.303Z,98276.49
2023-05-14T14:27:58.301Z,98269.60
2023-05-14T14:30:25.006Z,98264.98
2023-05-14T14:32:51.691Z,98255.83
2023-05-14T14:35:18.954Z,98244.43
2023-05-14T14:37:48.505Z,98232.14
2023-05-14T14:40:16.073Z,98227.11
2023-05-14T14:42:43.153Z,98229.13
2023-05-14T14:45:10.287Z,98223.65
2023-05-14T14:47:37.169Z,98223.09
2023-05-14T14:50:05.405Z,98218.48
2023-05-14T14:52:32.209Z,98211.56
2023-05-14T14:54:59.085Z,98210.94
2023-05-14T14:57:26.671Z,98208.75
2023-05-14T14:59:53.424Z,98211.45
2023-05-14T15:02:20.059Z,98207.63
2023-05-14T15:04:46.718Z,98205.66
2023-05-14T15:07:15.437Z,98208.86
2023-05-14T15:09:42.440Z,98216.44
2023-05-14T15:12:10.363Z,98221.73
2023-05-14T15:14:36.994Z,98218.09
2023-05-14T15:17:03.835Z,98217.18
2023-05-14T15:19:32.027Z,98225.08
2023-05-14T15:21:58.782Z,98233.36
2023-05-14T15:24:25.745Z,98226.35
2023-05-14T15:26:53.583Z,98223.45
2023-05-14T15:29:20.901Z,98225.90
2023-05-14T15:31:47.922Z,98233.18
2023-05-14T15:34:14.606Z,98234.03
2023-05-14T15:36:41.497Z,98227.26
2023-05-14T15:39:09.691Z,98216.92
2023-05-14T15:41:37.196Z,98218.38
2023-05-14T15:44:04.036Z,98224.41
2023-05-14T15:46:31.631Z,98226.84
2023-05-14T15:48:58.296Z,98225.54
2023-05-14T15:51:25.201Z,98224.56
2023-05-14T15:53:53.418Z,98237.34
2023-05-14T15:56:21.614Z,98236.18
2023-05-14T15:58:48.824Z,98241.77
2023-05-14T16:01:15.568Z,98241.61
2023-05-14T16:03:42.428Z,98238.10
2023-05-14T16:06:09.462Z,98232.64
2023-05-14T16:08:36.020Z,98235.40
2023-05-14T16:11:02.652Z,98238.17
2023-05-14T16:13:29.347Z,98232.11
2023-05-14T16:15:56.359Z,98228.02
2023-05-14T16:18:24.521Z,98231.39
2023-05-14T16:20:51.778Z,98227.48
2023-05-14T16:23:18.599Z,98223.37
2023-05-14T16:25:45.264Z,98217.39
2023-05-14T16:28:12.284Z,98215.98
2023-05-14T16:30:38.953Z,98217.20
2023-05-14T16:33:05.824Z,98217.63
2023-05-14T16:35:32.898Z,98219.79
2023-05-14T16:37:59.534Z,98217.52
2023-05-14T16:40:26.209Z,98222.73
2023-05-14T16:42:53.270Z,98221.77
2023-05-14T16:45:20.015Z,98219.51
2023-05-14T16:47:46.576Z,98217.14
2023-05-14T16:50:13.185Z,98219.25
2023-05-14T16:52:39.872Z,98222.80
2023-05-14T16:55:06.844Z,98219.04
2023-05-14T16:57:33.934Z,98217.40
2023-05-14T17:00:00.672Z,98214.77
2023-05-14T17:02:27.486Z,98211.21
2023-05-14T17:04:54.727Z,98205.61
2023-05-14T17:07:21.343Z,98199.73
2023-05-14T17:09:48.312Z,98194.98
2023-05-14T17:12:14.983Z,98190.23
2023-05-14T17:14:41.745Z,98192.33
2023-05-14T17:17:08.603Z,98188.69
2023-05-14T17:19:35.210Z,98186.53
2023-05-14T17:22:05.123Z,98188.52
2023-05-14T17:24:32.299Z,98185.69
2023-05-14T17:26:58.823Z,98188.97
2023-05-14T17:29:25.656Z,98191.30
2023-05-14T17:31:52.510Z,98187.02
2023-05-14T17:34:19.592Z,98190.98
2023-05-14T17:36:46.262Z,98196.84
2023-05-14T17:39:12.777Z,98198.02
2023-05-14T17:41:41.324Z,98201.12
2023-05-14T17:44:08.404Z,98200.83
2023-05-14T17:46:35.262Z,98201.44
2023-05-14T17:49:01.932Z,98204.60
2023-05-14T17:51:28.666Z,98211.39
2023-05-14T17:53:55.668Z,98210.27
2023-05-14T17:56:22.193Z,98203.02
2023-05-14T17:58:48.801Z,98204.69
2023-05-14T18:01:15.718Z,98205.70
2023-05-14T18:03:42.714Z,98203.08
2023-05-14T18:06:09.815Z,98204.22
2023-05-14T18:08:36.446Z,98208.52
2023-05-14T18:11:03.169Z,98212.33
2023-05-14T18:13:29.897Z,98218.38
2023-05-14T18:15:56.980Z,98223.87
2023-05-14T18:18:23.599Z,98230.45
2023-05-14T18:20:51.366Z,98232.80
2023-05-14T18:23:18.001Z,98236.38
2023-05-14T18:25:44.867Z,98235.52
2023-05-14T18:28:11.555Z,98230.67
2023-05-14T18:30:38.537Z,98229.48
2023-05-14T18:33:05.229Z,98237.48
2023-05-14T18:35:31.766Z,98240.90
2023-05-14T18:37:58.281Z,98241.05
2023-05-14T18:40:25.321Z,98244.59
2023-05-14T18:42:51.889Z,98245.19
2023-05-14T18:45:18.764Z,98247.36
2023-05-14T18:47:45.623Z,98246.18
2023-05-14T18:50:12.276Z,98244.17
2023-05-14T18:52:38.887Z,98239.09
2023-05-14T18:55:05.726Z,98236.19
2023-05-14T18:57:32.410Z,98237.61
2023-05-14T19:00:02.464Z,98234.27
2023-05-14T19:02:29.482Z,98231.38
2023-05-14T19:04:56.624Z,98229.09
2023-05-14T19:07:23.286Z,98230.55
2023-05-14T19:09:50.145Z,98227.81
2023-05-14T19:12:16.653Z,98223.09
2023-05-14T19:14:43.221Z,98221.25
2023-05-14T19:17:10.421Z,98215.17
2023-05-14T19:19:38.547Z,98215.58
2023-05-14T19:22:06.216Z,98215.45
2023-05-14T19:24:32.871Z,98215.16
2023-05-14T19:26:59.421Z,98215.08
2023-05-14T19:29:26.301Z,98209.65
2023-05-14T19:31:53.012Z,98207.73
2023-05-14T19:34:19.902Z,98207.80
2023-05-14T19:36:46.551Z,98205.93
2023-05-14T19:39:13.177Z,98206.13
2023-05-14T19:41:40.095Z,98204.09
2023-05-14T19:44:06.808Z,98206.40
2023-05-14T19:46:33.455Z,98205.73
2023-05-14T19:49:00.223Z,98202.85
2023-05-14T19:51:27.004Z,98201.83
2023-05-14T19:53:53.659Z,98204.54
2023-05-14T19:56:20.974Z,98211.91
2023-05-14T19:58:47.666Z,98208.61
2023-05-14T20:01:14.491Z,98204.23
2023-05-14T20:03:41.277Z,98204.12
2023-05-14T20:06:07.874Z,98205.63
2023-05-14T20:08:35.557Z,98205.66
2023-05-14T20:11:02.822Z,98203.54
2023-05-14T20:13:31.447Z,98196.04
2023-05-14T20:15:58.437Z,98186.58
2023-05-14T20:18:25.086Z,98184.56
2023-05-14T20:20:51.895Z,98178.06
2023-05-14T20:23:19.464Z,98180.90
2023-05-14T20:25:46.967Z,98177.14
2023-05-14T20:28:14.025Z,98171.55
2023-05-14T20:30:40.834Z,98170.20
2023-05-14T20:33:07.753Z,98169.39
2023-05-14T20:35:34.740Z,98174.36
2023-05-14T20:38:03.100Z,98180.77
2023-05-14T20:40:30.272Z,98188.94
2023-05-14T20:42:58.174Z,98191.34
2023-05-14T20:45:25.040Z,98182.14
2023-05-14T20:47:52.034Z,98171.27
2023-05-14T20:50:19.196Z,98166.30
2023-05-14T20:52:46.015Z,98163.92
2023-05-14T20:55:12.702Z,98160.62
2023-05-14T20:57:40.223Z,98158.02
2023-05-14T21:00:09.327Z,98148.86
2023-05-14T21:02:36.936Z,98141.02
2023-05-14T21:05:04.336Z,98136.66
2023-05-14T21:07:31.107Z,98134.77
2023-05-14T21:09:57.734Z,98139.40
2023-05-14T21:12:24.327Z,98144.15
2023-05-14T21:14:50.960Z,98147.79
2023-05-14T21:17:17.765Z,98145.14
2023-05-14T21:19:44.488Z,98142.13
2023-05-14T21:22:11.905Z,98135.00
2023-05-14T21:24:38.439Z,98130.48
2023-05-14T21:27:05.279Z,98125.77
2023-05-14T21:29:31.776Z,98115.72
2023-05-14T21:31:58.637Z,98106.80
2023-05-14T21:34:25.357Z,98102.00
2023-05-14T21:36:52.265Z,98094.80
2023-05-14T21:39:19.339Z,98090.23
2023-05-14T21:41:46.406Z,98085.84
2023-05-14T21:44:12.935Z,98084.80
2023-05-14T21:46:40.628Z,98078.52
2023-05-14T21:49:07.317Z,98072.23
2023-05-14T21:51:34.136Z,98069.45
2023-05-14T21:54:00.875Z,98070.36
2023-05-14T21:56:27.659Z,98072.80
2023-05-14T21:58:55.388Z,98073.77
2023-05-14T22:01:22.034Z,98069.34
2023-05-14T22:03:49.423Z,98063.44
2023-05-14T22:06:16.384Z,98061.17
2023-05-14T22:08:42.997Z,98058.92
2023-05-14T22:11:09.807Z,98053.83
2023-05-14T22:13:40.181Z,98046.07
2023-05-14T22:16:12.808Z,98044.27
2023-05-14T22:18:40.907Z,98043.36
2023-05-14T22:21:07.649Z,98038.85
2023-05-14T22:23:34.274Z,98033.07
2023-05-14T22:26:01.019Z,98030.30
2023-05-14T22:28:27.601Z,98030.17
2023-05-14T22:30:55.892Z,98038.27
2023-05-14T22:33:22.631Z,98031.88
2023-05-14T22:35:49.294Z,98028.20
2023-05-14T22:38:16.409Z,98037.90
2023-05-14T22:40:43.033Z,98044.13
2023-05-14T22:43:09.836Z,98048.68
2023-05-14T22:45:36.331Z,98044.40
2023-05-14T22:48:03.071Z,98041.08
2023-05-14T22:50:29.821Z,98038.83
2023-05-14T22:52:56.899Z,98037.64
2023-05-14T22:55:23.931Z,98040.80
2023-05-14T22:57:50.706Z,98038.89
2023-05-14T23:00:17.674Z,98037.02
2023-05-14T23:02:44.545Z,98032.27
2023-05-14T23:05:11.688Z,98027.90
2023-05-14T23:07:38.482Z,98027.61
2023-05-14T23:10:05.888Z,98023.46
2023-05-14T23:12:32.905Z,98028.57
2023-05-14T23:14:59.561Z,98025.89
2023-05-14T23:17:26.368Z,98032.20
2023-05-14T23:19:53.089Z,98031.63
2023-05-14T23:22:19.830Z,98022.02
2023-05-14T23:24:46.562Z,98022.84
2023-05-14T23:27:13.161Z,98016.94
2023-05-14T23:29:39.908Z,98009.80
2023-05-14T23:32:07.700Z,98005.63
2023-05-14T23:34:34.782Z,98007.73
2023-05-14T23:37:01.707Z,98007.04
2023-05-14T23:39:28.367Z,98006.72
2023-05-14T23:41:55.017Z,98006.95
2023-05-14T23:44:21.587Z,97999.02
2023-05-14T23:46:48.561Z,97980.80
2023-05-14T23:49:15.317Z,97975.05
2023-05-14T23:51:41.974Z,97964.89
2023-05-14T23:54:08.957Z,97963.11
2023-05-14T23:56:35.641Z,97959.98
2023-05-14T23:59:02.986Z,97966.69
